Time,TemperatureF,DewpointF,PressureIn,WindDirection,WindDirectionDegrees,WindSpeedMPH,WindSpeedGustMPH,Humidity,HourlyPrecipIn,Conditions,Clouds,dailyrainin,SoftwareType,DateUTC
2013-01-22 00:02:00,27.0,1.0,-100.00,WNW,285,23.0,30.0,33,0.00,,,-99.99,,2013-01-22 07:02:00,
2013-01-22 00:12:00,27.0,1.0,-100.00,WNW,285,23.0,30.0,33,0.00,,,-99.99,,2013-01-22 07:12:00,
2013-01-22 00:22:00,27.0,1.0,-100.00,WNW,285,25.0,32.0,32,0.00,,,-99.99,,2013-01-22 07:22:00,
2013-01-22 00:32:00,27.0,1.0,-100.00,WNW,285,25.0,33.0,32,0.00,,,-99.99,,2013-01-22 07:32:00,
2013-01-22 00:42:00,27.0,0.0,-100.00,WNW,285,24.0,33.0,32,0.00,,,-99.99,,2013-01-22 07:42:00,
2013-01-22 00:52:00,27.0,1.0,-100.00,WNW,285,26.0,34.0,32,0.00,,,-99.99,,2013-01-22 07:52:00,
2013-01-22 01:02:00,27.0,1.0,-100.00,WNW,284,24.0,30.0,32,0.00,,,-99.99,,2013-01-22 08:02:00,
2013-01-22 01:12:00,27.0,0.0,-100.00,WNW,285,24.0,33.0,31,0.00,,,-99.99,,2013-01-22 08:12:00,
2013-01-22 01:22:00,27.0,0.0,-100.00,WNW,285,27.0,35.0,31,0.00,,,-99.99,,2013-01-22 08:22:00,
2013-01-22 01:32:00,27.0,0.0,-100.00,WNW,284,26.0,34.0,31,0.00,,,-99.99,,2013-01-22 08:32:00,
2013-01-22 01:42:00,28.0,0.0,-100.00,WNW,285,26.0,35.0,30,0.00,,,-99.99,,2013-01-22 08:42:00,
2013-01-22 01:52:00,28.0,0.0,-100.00,WNW,285,30.0,37.0,29,0.00,,,-99.99,,2013-01-22 08:52:00,
2013-01-22 02:02:00,28.0,0.0,-100.00,WNW,285,29.0,38.0,29,0.00,,,-99.99,,2013-01-22 09:02:00,
2013-01-22 02:12:00,28.0,0.0,-100.00,WNW,285,29.0,38.0,30,0.00,,,-99.99,,2013-01-22 09:12:00,
2013-01-22 02:22:00,27.0,1.0,-100.00,WNW,285,28.0,37.0,31,0.00,,,-99.99,,2013-01-22 09:22:00,
2013-01-22 02:32:00,27.0,1.0,-100.00,WNW,285,27.0,37.0,32,0.00,,,-99.99,,2013-01-22 09:32:00,
2013-01-22 02:52:00,27.0,1.0,-100.00,WNW,285,27.0,39.0,32,0.00,,,-99.99,,2013-01-22 09:52:00,
2013-01-22 03:02:00,27.0,1.0,-100.00,WNW,285,27.0,35.0,32,0.00,,,-99.99,,2013-01-22 10:02:00,
2013-01-22 03:12:00,27.0,1.0,-100.00,WNW,285,27.0,34.0,32,0.00,,,-99.99,,2013-01-22 10:12:00,
2013-01-22 03:22:00,26.0,1.0,-100.00,WNW,285,28.0,35.0,33,0.00,,,-99.99,,2013-01-22 10:22:00,
2013-01-22 03:32:00,26.0,1.0,-100.00,WNW,285,27.0,35.0,34,0.00,,,-99.99,,2013-01-22 10:32:00,
2013-01-22 03:42:00,27.0,1.0,-100.00,WNW,285,30.0,40.0,32,0.00,,,-99.99,,2013-01-22 10:42:00,
2013-01-22 03:52:00,27.0,0.0,-100.00,WNW,285,32.0,42.0,30,0.00,,,-99.99,,2013-01-22 10:52:00,
2013-01-22 04:02:00,27.0,1.0,-100.00,WNW,285,31.0,41.0,32,0.00,,,-99.99,,2013-01-22 11:02:00,
2013-01-22 04:12:00,26.0,1.0,-100.00,WNW,285,29.0,37.0,33,0.00,,,-99.99,,2013-01-22 11:12:00,
2013-01-22 04:22:00,26.0,1.0,-100.00,WNW,284,31.0,40.0,33,0.00,,,-99.99,,2013-01-22 11:22:00,
2013-01-22 04:33:00,26.0,1.0,-100.00,WNW,285,29.0,39.0,33,0.00,,,-99.99,,2013-01-22 11:33:00,
2013-01-22 04:42:00,26.0,1.0,-100.00,WNW,285,29.0,39.0,33,0.00,,,-99.99,,2013-01-22 11:42:00,
2013-01-22 04:53:00,26.0,1.0,-100.00,WNW,285,30.0,39.0,33,0.00,,,-99.99,,2013-01-22 11:53:00,
2013-01-22 05:03:00,26.0,1.0,-100.00,WNW,284,30.0,39.0,33,0.00,,,-99.99,,2013-01-22 12:03:00,
2013-01-22 05:12:00,26.0,1.0,-100.00,WNW,285,30.0,39.0,34,0.00,,,-99.99,,2013-01-22 12:12:00,
2013-01-22 05:23:00,26.0,1.0,-100.00,WNW,285,29.0,35.0,33,0.00,,,-99.99,,2013-01-22 12:23:00,
2013-01-22 05:33:00,26.0,1.0,-100.00,WNW,285,28.0,35.0,34,0.00,,,-99.99,,2013-01-22 12:33:00,
2013-01-22 05:43:00,26.0,1.0,-100.00,WNW,285,30.0,40.0,34,0.00,,,-99.99,,2013-01-22 12:43:00,
2013-01-22 05:52:00,26.0,1.0,-100.00,WNW,285,29.0,38.0,34,0.00,,,-99.99,,2013-01-22 12:52:00,
2013-01-22 06:03:00,26.0,1.0,-100.00,WNW,285,29.0,40.0,33,0.00,,,-99.99,,2013-01-22 13:03:00,
2013-01-22 06:13:00,26.0,1.0,-100.00,WNW,285,29.0,39.0,34,0.00,,,-99.99,,2013-01-22 13:13:00,
2013-01-22 06:23:00,26.0,1.0,-100.00,WNW,285,29.0,45.0,34,0.00,,,-99.99,,2013-01-22 13:23:00,
2013-01-22 06:33:00,26.0,1.0,-100.00,WNW,284,27.0,34.0,34,0.00,,,-99.99,,2013-01-22 13:33:00,
2013-01-22 06:43:00,25.0,1.0,-100.00,WNW,285,27.0,35.0,34,0.00,,,-99.99,,2013-01-22 13:43:00,
2013-01-22 06:53:00,25.0,0.0,-100.00,WNW,285,26.0,32.0,33,0.00,,,-99.99,,2013-01-22 13:53:00,
2013-01-22 07:03:00,25.0,1.0,-100.00,WNW,285,26.0,32.0,34,0.00,,,-99.99,,2013-01-22 14:03:00,
2013-01-22 07:12:00,26.0,0.0,-100.00,WNW,285,25.0,32.0,33,0.00,,,-99.99,,2013-01-22 14:12:00,
2013-01-22 07:23:00,25.0,0.0,-100.00,WNW,285,22.0,29.0,34,0.00,,,-99.99,,2013-01-22 14:23:00,
2013-01-22 07:33:00,26.0,0.0,-100.00,WNW,284,22.0,29.0,32,0.00,,,-99.99,,2013-01-22 14:33:00,
2013-01-22 07:43:00,25.0,0.0,-100.00,WNW,285,22.0,29.0,33,0.00,,,-99.99,,2013-01-22 14:43:00,
2013-01-22 07:53:00,26.0,-1.0,-100.00,WNW,285,20.0,26.0,31,0.00,,,-99.99,,2013-01-22 14:53:00,
2013-01-22 08:03:00,26.0,-1.0,-100.00,WNW,285,18.0,24.0,31,0.00,,,-99.99,,2013-01-22 15:03:00,
2013-01-22 08:12:00,26.0,-1.0,-100.00,WNW,285,17.0,21.0,31,0.00,,,-99.99,,2013-01-22 15:12:00,
2013-01-22 08:23:00,27.0,-1.0,-100.00,WNW,285,19.0,25.0,30,0.00,,,-99.99,,2013-01-22 15:23:00,
2013-01-22 08:33:00,27.0,-1.0,-100.00,WNW,285,20.0,26.0,28,0.00,,,-99.99,,2013-01-22 15:33:00,
2013-01-22 08:43:00,28.0,-1.0,-100.00,WNW,285,21.0,27.0,28,0.00,,,-99.99,,2013-01-22 15:43:00,
2013-01-22 08:52:00,28.0,0.0,-100.00,WNW,285,22.0,29.0,29,0.00,,,-99.99,,2013-01-22 15:52:00,
2013-01-22 09:03:00,29.0,-1.0,-100.00,WNW,285,27.0,33.0,26,0.00,,,-99.99,,2013-01-22 16:03:00,
2013-01-22 09:13:00,29.0,0.0,-100.00,WNW,285,27.0,33.0,27,0.00,,,-99.99,,2013-01-22 16:13:00,
2013-01-22 09:23:00,30.0,0.0,-100.00,WNW,285,26.0,34.0,27,0.00,,,-99.99,,2013-01-22 16:23:00,
2013-01-22 09:33:00,31.0,0.0,-100.00,WNW,284,23.0,29.0,27,0.00,,,-99.99,,2013-01-22 16:33:00,
2013-01-22 09:43:00,31.0,1.0,-100.00,WNW,285,22.0,29.0,27,0.00,,,-99.99,,2013-01-22 16:43:00,
2013-01-22 09:53:00,32.0,0.0,-100.00,WNW,285,22.0,29.0,25,0.00,,,-99.99,,2013-01-22 16:53:00,
2013-01-22 10:03:00,33.0,1.0,-100.00,WNW,285,22.0,28.0,26,0.00,,,-99.99,,2013-01-22 17:03:00,
2013-01-22 10:12:00,33.0,0.0,-100.00,WNW,285,21.0,30.0,25,0.00,,,-99.99,,2013-01-22 17:12:00,
2013-01-22 10:23:00,33.0,2.0,-100.00,WNW,285,25.0,34.0,25,0.00,,,-99.99,,2013-01-22 17:23:00,
2013-01-22 10:33:00,34.0,0.0,-100.00,WNW,285,24.0,34.0,23,0.00,,,-99.99,,2013-01-22 17:33:00,
2013-01-22 10:43:00,34.0,1.0,-100.00,WNW,285,25.0,31.0,24,0.00,,,-99.99,,2013-01-22 17:43:00,
2013-01-22 10:53:00,35.0,1.0,-100.00,WNW,285,24.0,31.0,24,0.00,,,-99.99,,2013-01-22 17:53:00,
2013-01-22 11:03:00,35.0,1.0,-100.00,WNW,285,21.0,30.0,24,0.00,,,-99.99,,2013-01-22 18:03:00,
2013-01-22 11:12:00,36.0,4.0,-100.00,WNW,285,21.0,30.0,26,0.00,,,-99.99,,2013-01-22 18:12:00,
2013-01-22 11:23:00,36.0,3.0,-100.00,WNW,285,21.0,28.0,24,0.00,,,-99.99,,2013-01-22 18:23:00,
2013-01-22 11:34:00,-999.0,-99.9,-100.00,WNW,285,20.0,27.0,-999,-99.99,,,-99.99,,2013-01-22 18:34:00,
2013-01-22 11:43:00,37.0,0.0,-100.00,WNW,285,20.0,26.0,20,0.00,,,-99.99,,2013-01-22 18:43:00,
2013-01-22 11:53:00,37.0,2.0,-100.00,WNW,285,22.0,29.0,22,0.00,,,-99.99,,2013-01-22 18:53:00,
2013-01-22 12:03:00,38.0,1.0,-100.00,WNW,285,26.0,33.0,20,0.00,,,-99.99,,2013-01-22 19:03:00,
2013-01-22 12:13:00,38.0,0.0,-100.00,WNW,285,27.0,34.0,19,0.00,,,-99.99,,2013-01-22 19:13:00,
2013-01-22 12:23:00,39.0,1.0,-100.00,WNW,285,27.0,35.0,20,0.00,,,-99.99,,2013-01-22 19:23:00,
2013-01-22 12:33:00,39.0,-1.0,-100.00,WNW,285,29.0,35.0,18,0.00,,,-99.99,,2013-01-22 19:33:00,
2013-01-22 12:43:00,40.0,-2.0,-100.00,WNW,285,25.0,34.0,17,0.00,,,-99.99,,2013-01-22 19:43:00,
2013-01-22 12:53:00,40.0,0.0,-100.00,WNW,285,27.0,37.0,18,0.00,,,-99.99,,2013-01-22 19:53:00,
2013-01-22 13:03:00,40.0,-3.0,-100.00,WNW,285,27.0,35.0,16,0.00,,,-99.99,,2013-01-22 20:03:00,
2013-01-22 13:12:00,40.0,-1.0,-100.00,WNW,285,27.0,35.0,17,0.00,,,-99.99,,2013-01-22 20:12:00,
2013-01-22 13:23:00,40.0,-2.0,-100.00,WNW,285,25.0,32.0,16,0.00,,,-99.99,,2013-01-22 20:23:00,
2013-01-22 13:33:00,40.0,-2.0,-100.00,WNW,285,27.0,33.0,17,0.00,,,-99.99,,2013-01-22 20:33:00,
2013-01-22 13:42:00,41.0,-2.0,-100.00,WNW,285,24.0,32.0,16,0.00,,,-99.99,,2013-01-22 20:42:00,
2013-01-22 13:53:00,41.0,-2.0,-100.00,WNW,285,21.0,27.0,16,0.00,,,-99.99,,2013-01-22 20:53:00,
2013-01-22 14:03:00,41.0,-1.0,-100.00,WNW,285,22.0,32.0,17,0.00,,,-99.99,,2013-01-22 21:03:00,
2013-01-22 14:13:00,41.0,-3.0,-100.00,WNW,285,22.0,32.0,16,0.00,,,-99.99,,2013-01-22 21:13:00,
2013-01-22 14:22:00,41.0,2.0,-100.00,WNW,285,24.0,32.0,19,0.00,,,-99.99,,2013-01-22 21:22:00,
2013-01-22 14:33:00,40.0,-1.0,-100.00,WNW,285,21.0,31.0,17,0.00,,,-99.99,,2013-01-22 21:33:00,
2013-01-22 14:43:00,41.0,0.0,-100.00,WNW,285,23.0,31.0,18,0.00,,,-99.99,,2013-01-22 21:43:00,
2013-01-22 14:52:00,40.0,-2.0,-100.00,WNW,284,23.0,34.0,16,0.00,,,-99.99,,2013-01-22 21:52:00,
2013-01-22 15:03:00,40.0,-1.0,-100.00,WNW,285,22.0,32.0,17,0.00,,,-99.99,,2013-01-22 22:03:00,
2013-01-22 15:12:00,40.0,-2.0,-100.00,WNW,285,24.0,32.0,16,0.00,,,-99.99,,2013-01-22 22:12:00,
2013-01-22 15:22:00,39.0,1.0,-100.00,WNW,285,27.0,35.0,20,0.00,,,-99.99,,2013-01-22 22:22:00,
2013-01-22 15:32:00,39.0,0.0,-100.00,WNW,285,29.0,35.0,19,0.00,,,-99.99,,2013-01-22 22:32:00,
2013-01-22 15:43:00,39.0,1.0,-100.00,WNW,285,29.0,36.0,19,0.00,,,-99.99,,2013-01-22 22:43:00,
2013-01-22 15:53:00,39.0,0.0,-100.00,WNW,284,26.0,34.0,19,0.00,,,-99.99,,2013-01-22 22:53:00,
2013-01-22 16:02:00,38.0,0.0,-100.00,WNW,285,27.0,35.0,19,0.00,,,-99.99,,2013-01-22 23:02:00,
2013-01-22 16:12:00,38.0,1.0,-100.00,WNW,285,26.0,35.0,20,0.00,,,-99.99,,2013-01-22 23:12:00,
2013-01-22 16:23:00,38.0,1.0,-100.00,WNW,285,27.0,32.0,20,0.00,,,-99.99,,2013-01-22 23:23:00,
2013-01-22 16:33:00,38.0,0.0,-100.00,WNW,285,26.0,37.0,20,0.00,,,-99.99,,2013-01-22 23:33:00,
2013-01-22 16:42:00,37.0,-1.0,-100.00,WNW,285,26.0,33.0,19,0.00,,,-99.99,,2013-01-22 23:42:00,
2013-01-22 16:52:00,37.0,0.0,-100.00,WNW,285,24.0,30.0,21,0.00,,,-99.99,,2013-01-22 23:52:00,
2013-01-22 17:03:00,36.0,-2.0,-100.00,WNW,285,21.0,28.0,19,0.00,,,-99.99,,2013-01-23 00:03:00,
2013-01-22 17:12:00,36.0,-1.0,-100.00,WNW,285,21.0,28.0,20,0.00,,,-99.99,,2013-01-23 00:12:00,
2013-01-22 17:22:00,35.0,-1.0,-100.00,WNW,285,17.0,23.0,21,0.00,,,-99.99,,2013-01-23 00:22:00,
2013-01-22 17:33:00,34.0,0.0,-100.00,WNW,284,15.0,21.0,23,0.00,,,-99.99,,2013-01-23 00:33:00,
2013-01-22 17:42:00,34.0,-1.0,-100.00,WNW,284,14.0,18.0,22,0.00,,,-99.99,,2013-01-23 00:42:00,
2013-01-22 17:52:00,34.0,-3.0,-100.00,WNW,285,15.0,21.0,20,0.00,,,-99.99,,2013-01-23 00:52:00,
2013-01-22 18:03:00,33.0,-2.0,-100.00,WNW,285,13.0,17.0,21,0.00,,,-99.99,,2013-01-23 01:03:00,
2013-01-22 18:13:00,33.0,-2.0,-100.00,WNW,285,12.0,16.0,22,0.00,,,-99.99,,2013-01-23 01:13:00,
2013-01-22 18:22:00,33.0,-4.0,-100.00,WNW,285,12.0,18.0,19,0.00,,,-99.99,,2013-01-23 01:22:00,
2013-01-22 18:33:00,33.0,-6.0,-100.00,WNW,285,14.0,20.0,18,0.00,,,-99.99,,2013-01-23 01:33:00,
2013-01-22 18:52:00,32.0,-5.0,-100.00,WNW,284,11.0,16.0,19,0.00,,,-99.99,,2013-01-23 01:52:00,
2013-01-22 19:03:00,31.0,-5.0,-100.00,WNW,285,13.0,16.0,19,0.00,,,-99.99,,2013-01-23 02:03:00,
2013-01-22 19:12:00,32.0,-6.0,-100.00,WNW,285,13.0,17.0,19,0.00,,,-99.99,,2013-01-23 02:12:00,
2013-01-22 19:23:00,29.0,-5.0,-100.00,WNW,285,9.0,13.0,22,0.00,,,-99.99,,2013-01-23 02:23:00,
2013-01-22 19:33:00,31.0,-6.0,-100.00,WNW,285,9.0,12.0,20,0.00,,,-99.99,,2013-01-23 02:33:00,
2013-01-22 19:42:00,30.0,-6.0,-100.00,WNW,284,9.0,12.0,20,0.00,,,-99.99,,2013-01-23 02:42:00,
2013-01-22 19:53:00,31.0,-7.0,-100.00,WNW,284,9.0,10.0,19,0.00,,,-99.99,,2013-01-23 02:53:00,
2013-01-22 20:03:00,31.0,-8.0,-100.00,WNW,285,9.0,11.0,18,0.00,,,-99.99,,2013-01-23 03:03:00,
2013-01-22 20:12:00,30.0,-7.0,-100.00,WNW,285,9.0,11.0,19,0.00,,,-99.99,,2013-01-23 03:12:00,
2013-01-22 20:23:00,31.0,-8.0,-100.00,WNW,285,11.0,13.0,18,0.00,,,-99.99,,2013-01-23 03:23:00,
2013-01-22 20:32:00,30.0,-8.0,-100.00,WNW,284,10.0,12.0,18,0.00,,,-99.99,,2013-01-23 03:32:00,
2013-01-22 20:42:00,31.0,-8.0,-100.00,WNW,285,10.0,12.0,18,0.00,,,-99.99,,2013-01-23 03:42:00,
2013-01-22 20:52:00,32.0,-9.0,-100.00,WNW,285,11.0,15.0,16,0.00,,,-99.99,,2013-01-23 03:52:00,
2013-01-22 21:03:00,33.0,-10.0,-100.00,WNW,285,14.0,19.0,15,0.00,,,-99.99,,2013-01-23 04:03:00,
2013-01-22 21:12:00,33.0,-10.0,-100.00,WNW,285,16.0,20.0,15,0.00,,,-99.99,,2013-01-23 04:12:00,
2013-01-22 21:22:00,33.0,-11.0,-100.00,WNW,285,17.0,22.0,14,0.00,,,-99.99,,2013-01-23 04:22:00,
2013-01-22 21:32:00,33.0,-11.0,-100.00,WNW,285,16.0,21.0,14,0.00,,,-99.99,,2013-01-23 04:32:00,
2013-01-22 21:43:00,33.0,-11.0,-100.00,WNW,285,16.0,19.0,14,0.00,,,-99.99,,2013-01-23 04:43:00,
2013-01-22 21:52:00,33.0,-12.0,-100.00,WNW,285,16.0,22.0,13,0.00,,,-99.99,,2013-01-23 04:52:00,
2013-01-22 22:03:00,33.0,-11.0,-100.00,WNW,285,15.0,19.0,14,0.00,,,-99.99,,2013-01-23 05:03:00,
2013-01-22 22:12:00,33.0,-11.0,-100.00,WNW,285,14.0,18.0,14,0.00,,,-99.99,,2013-01-23 05:12:00,
2013-01-22 22:22:00,33.0,-12.0,-100.00,WNW,285,11.0,15.0,14,0.00,,,-99.99,,2013-01-23 05:22:00,
2013-01-22 22:33:00,33.0,-12.0,-100.00,WNW,285,11.0,16.0,13,0.00,,,-99.99,,2013-01-23 05:33:00,
2013-01-22 22:43:00,33.0,-12.0,-100.00,WNW,285,9.0,14.0,13,0.00,,,-99.99,,2013-01-23 05:43:00,
2013-01-22 22:52:00,32.0,-12.0,-100.00,WNW,285,7.0,11.0,14,0.00,,,-99.99,,2013-01-23 05:52:00,
2013-01-22 23:02:00,33.0,-12.0,-100.00,WNW,285,7.0,10.0,13,0.00,,,-99.99,,2013-01-23 06:02:00,
2013-01-22 23:12:00,33.0,-12.0,-100.00,WNW,285,7.0,12.0,13,0.00,,,-99.99,,2013-01-23 06:12:00,
2013-01-22 23:22:00,32.0,-12.0,-100.00,WNW,285,9.0,12.0,14,0.00,,,-99.99,,2013-01-23 06:22:00,
2013-01-22 23:32:00,32.0,-12.0,-100.00,WNW,285,9.0,12.0,14,0.00,,,-99.99,,2013-01-23 06:32:00,
2013-01-22 23:42:00,32.0,-12.0,-100.00,WNW,285,11.0,15.0,14,0.00,,,-99.99,,2013-01-23 06:42:00,
2013-01-22 23:52:00,31.0,-11.0,-100.00,WNW,285,12.0,16.0,15,0.00,,,-99.99,,2013-01-23 06:52:00,